Time;durP1;ratioP1;P1;durP2;ratioP2;P2;SDS_P1;SDS_P2;PMS_P1;PMS_P2;Temp;Humidity;BMP_temperature;BMP_pressure;BME280_temperature;BME280_humidity;BME280_pressure;Samples;Min_cycle;Max_cycle;Signal;HPM_P1;HPM_P2
2024/02/29 00:02:04;;;;;;;10.20;6.73;;;;;;;8.51;65.36;96995.56;5050940;28;20299;-84
2024/02/29 00:04:32;;;;;;;10.47;7.70;;;;;;;8.64;64.47;96990.84;5050972;28;20198;-84
2024/02/29 00:06:59;;;;;;;8.97;7.00;;;;;;;8.65;64.22;96982.59;5051573;28;20198;-84
2024/02/29 00:09:26;;;;;;;10.73;8.07;;;;;;;8.74;64.18;96996.94;5051051;28;20201;-84
2024/02/29 00:11:54;;;;;;;11.00;8.53;;;;;;;8.27;64.59;96967.91;5051361;28;20198;-84
2024/02/29 00:14:21;;;;;;;10.70;8.70;;;;;;;8.41;65.01;96989.47;5051062;28;20229;-84
2024/02/29 00:16:48;;;;;;;13.00;7.73;;;;;;;8.20;64.81;96957.53;5051026;28;20594;-85
2024/02/29 00:19:15;;;;;;;10.30;7.33;;;;;;;8.48;64.66;96988.16;5050606;28;20222;-84
2024/02/29 00:21:42;;;;;;;11.17;7.77;;;;;;;8.51;64.92;96978.84;5051146;28;20267;-84
2024/02/29 00:24:09;;;;;;;11.33;8.00;;;;;;;8.30;65.45;96994.69;5051526;28;20205;-84
2024/02/29 00:26:36;;;;;;;11.30;7.73;;;;;;;8.20;67.08;97001.81;5051045;28;20202;-84
2024/02/29 00:29:04;;;;;;;9.83;7.63;;;;;;;8.19;67.59;96992.28;5051917;28;20198;-84
2024/02/29 00:31:31;;;;;;;13.93;7.13;;;;;;;8.46;65.97;96992.91;5051462;28;20197;-84
2024/02/29 00:33:58;;;;;;;11.73;7.27;;;;;;;8.37;64.91;96994.50;5054734;28;20679;-84
2024/02/29 00:36:24;;;;;;;10.93;7.07;;;;;;;7.91;66.32;96964.34;5054744;28;20209;-84
2024/02/29 00:38:51;;;;;;;11.47;7.37;;;;;;;8.34;65.69;96995.78;5054647;28;20208;-84
2024/02/29 00:41:18;;;;;;;10.90;6.73;;;;;;;8.12;65.61;96975.81;5053678;28;20208;-85
2024/02/29 00:43:45;;;;;;;11.57;7.23;;;;;;;8.30;65.88;96992.06;5055252;28;20289;-84
2024/02/29 00:46:13;;;;;;;11.17;5.80;;;;;;;8.34;65.55;96994.97;5053459;28;20605;-84
2024/02/29 00:48:40;;;;;;;11.67;6.40;;;;;;;7.94;66.03;96972.59;5053671;28;20259;-84
2024/02/29 00:51:07;;;;;;;10.00;6.47;;;;;;;7.80;67.34;96997.97;5053876;28;20603;-84
2024/02/29 00:53:34;;;;;;;9.80;6.00;;;;;;;8.12;66.35;96994.38;5054259;28;20208;-84
2024/02/29 00:56:00;;;;;;;8.70;6.80;;;;;;;8.29;65.91;96992.31;5054803;28;20259;-84
2024/02/29 00:58:27;;;;;;;8.07;7.23;;;;;;;8.42;65.40;96996.34;5053672;28;20194;-84
2024/02/29 01:00:55;;;;;;;11.43;8.23;;;;;;;8.31;65.65;96996.28;5054737;28;20234;-84
2024/02/29 01:03:23;;;;;;;16.30;6.83;;;;;;;8.23;65.59;96993.34;5052684;28;20236;-84
2024/02/29 01:05:50;;;;;;;7.80;6.47;;;;;;;7.76;66.39;96973.81;5053609;28;20277;-84
2024/02/29 01:08:17;;;;;;;12.47;6.47;;;;;;;7.91;65.75;96959.06;5053725;28;20198;-84
2024/02/29 01:10:44;;;;;;;9.70;7.13;;;;;;;7.59;66.43;96950.16;5054152;28;20201;-84
2024/02/29 01:13:11;;;;;;;8.70;7.23;;;;;;;7.44;66.86;96958.03;5053238;28;20205;-84
2024/02/29 01:15:37;;;;;;;10.33;7.40;;;;;;;7.62;66.68;96946.19;5054859;28;20573;-84
2024/02/29 01:18:07;;;;;;;9.47;7.03;;;;;;;8.07;65.91;96993.31;5052764;28;20201;-84
2024/02/29 01:20:35;;;;;;;12.80;6.87;;;;;;;8.02;65.81;96982.69;5054092;28;20244;-85
2024/02/29 01:23:02;;;;;;;14.43;7.70;;;;;;;7.98;65.46;96981.63;5052663;28;20197;-84
2024/02/29 01:25:29;;;;;;;9.13;6.77;;;;;;;8.14;65.73;96982.47;5053525;28;20205;-84
2024/02/29 01:27:55;;;;;;;10.97;6.00;;;;;;;7.69;65.55;96943.31;5053775;28;20198;-85
2024/02/29 01:30:22;;;;;;;8.03;6.50;;;;;;;7.57;67.49;96964.72;5052007;28;20252;-84
2024/02/29 01:32:49;;;;;;;10.70;7.27;;;;;;;7.77;67.70;96985.22;5053566;28;20202;-84
2024/02/29 01:35:16;;;;;;;11.90;6.17;;;;;;;7.81;66.62;96973.03;5053590;28;20672;-84
2024/02/29 01:37:44;;;;;;;8.33;5.93;;;;;;;7.79;66.20;96991.88;5052920;28;20260;-84
2024/02/29 01:40:11;;;;;;;10.27;8.23;;;;;;;7.58;67.83;96988.28;5052714;28;20226;-84
2024/02/29 01:42:41;;;;;;;9.43;6.77;;;;;;;7.80;66.97;96982.06;5052370;28;20197;-84
2024/02/29 01:45:09;;;;;;;8.57;6.50;;;;;;;7.95;66.71;96987.44;5052672;28;20194;-85
2024/02/29 01:47:35;;;;;;;10.70;6.10;;;;;;;8.01;65.99;96980.28;5053716;28;20202;-84
2024/02/29 01:50:04;;;;;;;7.90;6.53;;;;;;;7.54;66.42;96955.44;5053916;28;20217;-85
2024/02/29 01:52:33;;;;;;;9.10;6.07;;;;;;;7.74;66.97;96981.22;5053656;28;20236;-85
2024/02/29 01:55:03;;;;;;;12.00;6.47;;;;;;;7.59;67.39;96979.31;5053247;28;20669;-85
2024/02/29 01:57:30;;;;;;;8.17;6.47;;;;;;;7.60;67.27;96982.75;5051944;28;20198;-84
2024/02/29 01:59:58;;;;;;;10.80;6.67;;;;;;;7.58;67.57;96971.59;5052417;28;20245;-85
2024/02/29 02:02:25;;;;;;;8.83;6.50;;;;;;;7.52;67.04;96956.75;5053900;28;20573;-85
2024/02/29 02:04:51;;;;;;;11.43;6.40;;;;;;;7.47;67.58;96965.47;5053509;28;20205;-85
2024/02/29 02:07:18;;;;;;;7.97;7.00;;;;;;;7.66;66.99;96994.97;5053062;28;20201;-85
2024/02/29 02:09:46;;;;;;;11.87;6.97;;;;;;;7.69;66.81;96983.84;5053330;28;20201;-85
2024/02/29 02:12:14;;;;;;;12.63;7.23;;;;;;;6.92;67.81;96936.78;5052155;28;20198;-85
2024/02/29 02:14:41;;;;;;;10.03;7.67;;;;;;;7.14;68.33;96968.44;5052538;28;20197;-85
2024/02/29 02:17:09;;;;;;;14.40;10.13;;;;;;;7.59;67.20;97007.66;5052591;28;20197;-85
2024/02/29 02:19:36;;;;;;;19.53;12.37;;;;;;;7.40;67.13;97003.84;5052615;28;20197;-85
2024/02/29 02:22:05;;;;;;;24.53;11.27;;;;;;;7.34;67.72;97002.97;5051864;28;20267;-85
2024/02/29 02:24:32;;;;;;;12.27;9.00;;;;;;;7.38;67.89;96996.13;5052227;28;20787;-85
2024/02/29 02:26:59;;;;;;;9.30;7.50;;;;;;;6.73;69.41;96962.81;5052364;28;20224;-85
2024/02/29 02:29:26;;;;;;;9.67;7.43;;;;;;;7.17;69.50;97002.34;5052383;28;20198;-85
2024/02/29 02:31:53;;;;;;;10.47;7.40;;;;;;;7.05;68.37;96979.50;5052313;28;20198;-85
2024/02/29 02:34:20;;;;;;;8.47;6.67;;;;;;;7.29;68.75;96995.00;5052147;28;20273;-85
2024/02/29 02:36:47;;;;;;;7.97;6.77;;;;;;;7.36;68.15;96998.25;5051825;28;20197;-85
2024/02/29 02:39:15;;;;;;;16.47;7.83;;;;;;;6.99;68.11;96969.13;5052067;28;20202;-85
2024/02/29 02:41:44;;;;;;;10.40;7.77;;;;;;;6.86;67.64;96975.63;5053184;28;20217;-85
2024/02/29 02:44:12;;;;;;;10.13;7.13;;;;;;;6.66;68.84;96946.34;5051771;28;20575;-85
2024/02/29 02:46:39;;;;;;;10.83;7.37;;;;;;;6.91;67.61;96928.03;5052634;28;20226;-85
2024/02/29 02:49:05;;;;;;;10.23;7.90;;;;;;;7.08;68.27;97000.13;5052193;28;20211;-85
2024/02/29 02:51:32;;;;;;;8.10;7.17;;;;;;;7.09;68.92;97000.97;5050997;28;20568;-85
2024/02/29 02:53:59;;;;;;;10.13;7.27;;;;;;;7.11;68.54;97004.13;5051807;28;20551;-85
2024/02/29 02:56:27;;;;;;;11.57;7.43;;;;;;;6.55;68.73;96930.41;5052264;28;20281;-85
2024/02/29 02:58:54;;;;;;;12.83;9.07;;;;;;;7.00;68.92;96990.03;5052059;28;20205;-85
2024/02/29 03:01:21;;;;;;;11.23;7.43;;;;;;;6.72;68.12;96974.44;5052161;28;20230;-85
2024/02/29 03:03:47;;;;;;;10.47;7.60;;;;;;;6.98;68.76;97002.72;5052836;28;20201;-85
2024/02/29 03:06:15;;;;;;;13.30;8.30;;;;;;;7.03;68.95;97013.34;5051575;28;20209;-85
2024/02/29 03:08:41;;;;;;;9.27;7.20;;;;;;;6.64;69.80;97007.44;5051953;28;20252;-85
2024/02/29 03:11:08;;;;;;;9.00;7.37;;;;;;;6.60;68.69;96996.56;5050618;28;20201;-85
2024/02/29 03:13:37;;;;;;;10.50;7.90;;;;;;;6.63;69.12;97007.69;5051272;28;20237;-85
2024/02/29 03:16:04;;;;;;;7.77;6.77;;;;;;;6.70;70.12;97010.91;5052576;28;20205;-87
2024/02/29 03:18:31;;;;;;;11.53;7.73;;;;;;;6.73;68.78;96998.00;5051711;28;21540;-85
2024/02/29 03:20:58;;;;;;;8.90;7.67;;;;;;;6.49;70.25;97010.72;5050772;28;20225;-85
2024/02/29 03:23:24;;;;;;;11.43;8.03;;;;;;;6.39;69.45;96970.97;5051309;28;20618;-85
2024/02/29 03:25:51;;;;;;;13.37;8.37;;;;;;;6.74;69.57;97002.25;5050646;28;20617;-85
2024/02/29 03:28:18;;;;;;;10.57;7.30;;;;;;;6.75;69.32;96989.81;5050815;28;20664;-85
2024/02/29 03:30:46;;;;;;;10.33;8.50;;;;;;;6.76;69.10;96999.34;5052075;28;20198;-85
2024/02/29 03:33:13;;;;;;;12.37;7.87;;;;;;;6.87;68.81;97022.22;5051590;28;20198;-86
2024/02/29 03:35:40;;;;;;;10.37;8.73;;;;;;;6.50;69.63;97014.97;5050715;28;20212;-86
2024/02/29 03:38:07;;;;;;;12.40;8.30;;;;;;;6.37;70.27;96983.63;5052023;28;20632;-86
2024/02/29 03:40:34;;;;;;;11.20;9.37;;;;;;;6.87;69.71;97016.91;5050397;28;20226;-85
2024/02/29 03:43:01;;;;;;;15.60;10.33;;;;;;;6.63;69.42;96999.78;5042229;28;20194;-85
2024/02/29 03:45:28;;;;;;;20.07;15.53;;;;;;;6.67;69.89;97035.25;5042027;28;20256;-85
2024/02/29 03:47:56;;;;;;;35.57;25.97;;;;;;;6.59;70.29;97015.34;5051443;28;20629;-86
2024/02/29 03:50:24;;;;;;;19.63;13.87;;;;;;;6.40;69.74;96985.78;5051591;28;20288;-85
2024/02/29 03:52:51;;;;;;;21.77;12.07;;;;;;;6.19;70.70;96976.84;5050738;28;20208;-86
2024/02/29 03:55:18;;;;;;;15.43;11.23;;;;;;;6.51;70.32;96979.56;5050827;28;20204;-85
2024/02/29 03:57:44;;;;;;;19.83;12.90;;;;;;;6.69;70.24;96996.91;5052007;28;20549;-85
2024/02/29 04:00:13;;;;;;;18.37;12.77;;;;;;;6.79;69.13;97002.28;5049283;28;20683;-85
2024/02/29 04:02:40;;;;;;;15.27;10.13;;;;;;;6.49;71.02;96991.44;5031096;28;20329;-86
2024/02/29 04:05:09;;;;;;;19.13;9.83;;;;;;;6.71;70.84;96996.66;5031767;28;20209;-86
2024/02/29 04:07:37;;;;;;;13.50;9.40;;;;;;;6.84;72.25;96988.31;5035173;28;20206;-85
2024/02/29 04:10:05;;;;;;;14.23;10.30;;;;;;;6.93;71.39;96993.94;5035761;28;20576;-86
2024/02/29 04:12:32;;;;;;;14.03;10.33;;;;;;;6.65;71.62;96995.00;5040368;28;20209;-85
2024/02/29 04:15:01;;;;;;;17.87;11.90;;;;;;;6.37;71.86;96965.13;5055497;28;20565;-85
2024/02/29 04:17:29;;;;;;;16.03;11.70;;;;;;;6.03;72.43;96973.22;5054491;28;20205;-93
2024/02/29 04:19:56;;;;;;;20.20;13.57;;;;;;;6.40;71.74;97000.88;5055530;28;20248;-93
2024/02/29 04:22:24;;;;;;;23.40;16.13;;;;;;;5.45;72.33;96927.06;5056268;28;20267;-95
2024/02/29 04:24:52;;;;;;;20.60;13.80;;;;;;;5.32;72.68;96945.91;5055439;28;20204;-94
2024/02/29 04:27:18;;;;;;;18.97;12.07;;;;;;;5.71;72.98;97007.41;5056702;28;20225;-94
2024/02/29 04:29:47;;;;;;;16.43;11.37;;;;;;;5.77;72.38;96992.41;5055393;28;20208;-94
2024/02/29 04:32:13;;;;;;;15.10;10.37;;;;;;;5.80;72.44;96986.66;5055465;28;20264;-93
2024/02/29 04:34:41;;;;;;;17.47;10.70;;;;;;;6.07;71.48;96969.03;5055281;28;20201;-94
2024/02/29 04:37:08;;;;;;;17.50;12.40;;;;;;;6.47;71.21;96996.19;5035414;28;20202;-94
2024/02/29 04:39:37;;;;;;;15.77;11.47;;;;;;;6.30;72.02;96990.97;5053449;28;20210;-95
2024/02/29 04:42:05;;;;;;;22.20;12.30;;;;;;;6.15;72.42;96994.22;5057624;28;20233;-96
2024/02/29 04:44:32;;;;;;;14.63;11.47;;;;;;;6.01;71.63;97011.53;5057928;28;20198;-96
2024/02/29 04:46:59;;;;;;;16.57;10.73;;;;;;;5.66;72.08;96966.94;5069886;28;20174;-94
2024/02/29 04:49:26;;;;;;;17.27;12.83;;;;;;;6.04;72.38;97011.84;5038960;28;20319;-93
2024/02/29 04:51:53;;;;;;;16.87;9.83;;;;;;;6.27;71.08;96994.09;5026996;28;20661;-95
2024/02/29 04:54:20;;;;;;;15.93;10.37;;;;;;;6.49;71.03;96996.72;5066201;28;20240;-95
2024/02/29 04:56:49;;;;;;;18.40;11.43;;;;;;;5.77;71.71;96902.63;5068669;28;20631;-94
2024/02/29 04:59:16;;;;;;;13.10;10.90;;;;;;;6.26;72.70;96988.00;5049489;28;20201;-95
2024/02/29 05:01:43;;;;;;;11.77;10.00;;;;;;;6.41;73.30;96995.31;5064094;28;20260;-96
2024/02/29 05:04:10;;;;;;;13.13;9.70;;;;;;;6.34;72.68;96958.50;5046713;28;20248;-94
2024/02/29 05:06:37;;;;;;;13.13;9.27;;;;;;;6.60;73.09;96988.63;5056921;28;20216;-94
2024/02/29 05:09:06;;;;;;;16.97;9.37;;;;;;;6.74;73.56;96999.63;5055189;28;20236;-95
2024/02/29 05:11:33;;;;;;;16.47;9.73;;;;;;;6.70;72.60;96993.22;5045538;28;20198;-93
2024/02/29 05:14:01;;;;;;;10.50;8.73;;;;;;;6.68;73.06;96987.38;5055668;28;20252;-95
2024/02/29 05:16:28;;;;;;;14.70;10.70;;;;;;;6.83;72.97;97013.19;5055809;28;20202;-95
2024/02/29 05:18:54;;;;;;;13.80;9.63;;;;;;;6.79;72.58;97004.16;5054486;28;20206;-95
2024/02/29 05:21:21;;;;;;;14.50;9.57;;;;;;;6.92;72.19;97042.63;5055874;28;20279;-95
2024/02/29 05:23:48;;;;;;;14.63;10.27;;;;;;;6.85;72.26;97030.41;5056220;28;20206;-91
2024/02/29 05:26:16;;;;;;;14.60;10.53;;;;;;;6.86;72.28;97010.03;5056169;28;20208;-96
2024/02/29 05:28:42;;;;;;;17.00;10.20;;;;;;;6.96;72.23;97014.59;5037076;28;20218;-87
2024/02/29 05:31:10;;;;;;;14.77;10.77;;;;;;;7.09;71.75;97020.28;5034256;28;20249;-86
2024/02/29 05:33:38;;;;;;;14.07;10.00;;;;;;;6.66;73.09;96972.78;5037060;28;20629;-86
2024/02/29 05:36:05;;;;;;;15.17;11.13;;;;;;;6.87;73.89;97001.03;5053050;28;20289;-86
2024/02/29 05:38:32;;;;;;;25.20;14.43;;;;;;;6.81;73.72;96994.91;5053368;28;20263;-87
2024/02/29 05:40:59;;;;;;;19.90;12.30;;;;;;;7.06;73.66;97023.44;5052385;28;20221;-86
2024/02/29 05:43:26;;;;;;;20.37;14.67;;;;;;;7.06;73.56;97010.19;5053869;28;20267;-86
2024/02/29 05:45:52;;;;;;;25.90;14.63;;;;;;;6.82;73.95;96998.34;5053940;28;20624;-86
2024/02/29 05:48:21;;;;;;;18.93;12.00;;;;;;;6.97;73.85;97040.81;5053273;28;20202;-86
2024/02/29 05:50:48;;;;;;;15.57;12.17;;;;;;;6.93;74.53;97025.69;5052003;28;20289;-87
2024/02/29 05:53:15;;;;;;;17.70;10.80;;;;;;;6.84;75.31;97031.44;5051798;28;20193;-87
2024/02/29 05:55:42;;;;;;;18.60;11.80;;;;;;;6.89;75.22;97049.19;5051216;28;20645;-85
2024/02/29 05:58:09;;;;;;;16.83;12.30;;;;;;;7.07;74.39;97035.59;5052949;28;20278;-87
2024/02/29 06:00:36;;;;;;;19.43;12.03;;;;;;;7.18;74.28;97044.44;5050750;28;20226;-86
2024/02/29 06:03:03;;;;;;;13.90;11.70;;;;;;;7.05;74.83;97015.75;5052140;28;20189;-86
2024/02/29 06:05:31;;;;;;;15.10;11.77;;;;;;;7.18;74.51;97041.78;5051824;28;20198;-85
2024/02/29 06:07:58;;;;;;;13.90;11.30;;;;;;;6.99;75.12;97017.53;5051443;28;20198;-86
2024/02/29 06:10:24;;;;;;;18.17;11.70;;;;;;;7.11;75.57;97039.34;5051370;28;20213;-86
2024/02/29 06:12:51;;;;;;;20.77;11.97;;;;;;;6.84;74.99;96996.25;5038985;28;20201;-86
2024/02/29 06:15:19;;;;;;;13.73;11.73;;;;;;;7.40;74.30;97032.97;5051943;28;20198;-85
2024/02/29 06:17:46;;;;;;;14.93;11.60;;;;;;;7.11;73.81;96964.44;5052257;28;20577;-86
2024/02/29 06:20:13;;;;;;;15.10;11.13;;;;;;;7.59;73.99;97036.78;5051892;28;20604;-86
2024/02/29 06:22:42;;;;;;;23.23;13.37;;;;;;;7.58;73.83;97035.19;5051992;28;20222;-86
2024/02/29 06:25:10;;;;;;;14.83;10.63;;;;;;;7.40;74.57;97041.69;5052028;28;20198;-86
2024/02/29 06:27:37;;;;;;;17.93;11.93;;;;;;;7.31;74.93;97032.59;5052257;28;20628;-86
2024/02/29 06:30:05;;;;;;;28.03;15.17;;;;;;;7.36;74.69;97037.97;5051217;28;20201;-86
2024/02/29 06:32:32;;;;;;;17.43;12.43;;;;;;;7.38;75.00;97048.28;5051621;28;20275;-86
2024/02/29 06:34:59;;;;;;;35.57;20.90;;;;;;;7.04;74.02;96943.47;5052129;28;20583;-86
2024/02/29 06:37:26;;;;;;;35.47;24.03;;;;;;;7.68;73.40;97037.91;5051802;28;20198;-86
2024/02/29 06:39:56;;;;;;;30.23;23.23;;;;;;;7.90;72.98;97029.00;5051604;28;20205;-86
2024/02/29 06:42:25;;;;;;;28.40;21.47;;;;;;;7.90;73.77;97029.81;5051925;28;20221;-86
2024/02/29 06:44:52;;;;;;;45.27;27.87;;;;;;;7.79;73.97;97034.25;5051229;28;20224;-86
2024/02/29 06:47:19;;;;;;;35.93;23.80;;;;;;;7.74;74.27;97042.16;5051532;28;20668;-85
2024/02/29 06:49:46;;;;;;;34.03;20.33;;;;;;;7.37;73.92;96977.84;5051639;28;20614;-85
2024/02/29 06:52:13;;;;;;;31.30;18.27;;;;;;;7.69;73.66;97026.25;5051394;28;20623;-86
2024/02/29 06:54:41;;;;;;;29.67;18.70;;;;;;;7.82;73.57;97038.22;5051336;28;20217;-85
2024/02/29 06:57:10;;;;;;;28.23;16.37;;;;;;;7.77;73.49;97022.31;5051318;28;20205;-85
2024/02/29 06:59:36;;;;;;;25.67;18.37;;;;;;;7.60;73.38;97011.91;5051222;28;20224;-85
2024/02/29 07:02:04;;;;;;;22.60;16.57;;;;;;;7.55;72.82;97020.63;5051386;28;20692;-85
2024/02/29 07:04:31;;;;;;;33.70;18.30;;;;;;;7.64;72.52;97044.78;5049879;28;20272;-86
2024/02/29 07:06:58;;;;;;;29.70;18.70;;;;;;;7.64;72.31;97023.56;5051232;28;20205;-85
2024/02/29 07:09:25;;;;;;;27.50;20.70;;;;;;;7.74;72.72;97044.00;5051403;28;20217;-86
2024/02/29 07:11:51;;;;;;;24.80;18.90;;;;;;;7.80;73.07;97035.06;5051128;28;20197;-85
2024/02/29 07:14:20;;;;;;;30.47;19.03;;;;;;;7.90;72.90;97029.81;5051157;28;20282;-85
2024/02/29 07:16:46;;;;;;;32.83;19.37;;;;;;;7.92;72.72;97011.78;5051113;28;20205;-85
2024/02/29 07:19:13;;;;;;;24.37;18.93;;;;;;;8.09;72.48;97017.72;5050535;28;20202;-85
2024/02/29 07:21:41;;;;;;;28.60;18.73;;;;;;;8.27;71.88;97044.81;5051036;28;20627;-86
2024/02/29 07:24:08;;;;;;;25.07;16.87;;;;;;;8.34;72.51;97029.47;5051074;28;20185;-85
2024/02/29 07:26:42;;;;;;;47.23;32.83;;;;;;;8.35;72.47;97031.03;5051750;28;20198;-85
2024/02/29 07:29:09;;;;;;;165.90;78.73;;;;;;;8.22;72.69;97026.25;5050578;28;20288;-85
2024/02/29 07:31:41;;;;;;;51.60;31.33;;;;;;;8.27;72.71;97024.38;5050776;28;20285;-85
2024/02/29 07:34:10;;;;;;;30.10;21.30;;;;;;;7.88;72.82;96970.97;5050757;28;20674;-85
2024/02/29 07:36:37;;;;;;;25.90;14.57;;;;;;;8.39;72.58;97034.00;5050585;28;20198;-84
2024/02/29 07:39:06;;;;;;;23.23;15.03;;;;;;;8.36;72.15;97011.41;5050991;28;20197;-85
2024/02/29 07:41:33;;;;;;;21.53;15.43;;;;;;;8.49;72.98;97016.28;5053076;28;20217;-85
2024/02/29 07:43:59;;;;;;;19.70;14.30;;;;;;;8.65;72.61;97016.31;5054783;28;20577;-85
2024/02/29 07:46:26;;;;;;;20.17;16.07;;;;;;;8.50;72.25;96986.03;5054629;28;20296;-85
2024/02/29 07:48:54;;;;;;;23.13;15.53;;;;;;;8.55;72.72;97009.09;5054810;28;20206;-85
2024/02/29 07:51:21;;;;;;;26.87;14.00;;;;;;;8.54;72.24;96983.66;5051025;28;20202;-85
2024/02/29 07:53:48;;;;;;;21.10;14.00;;;;;;;8.40;72.71;96951.53;5042898;28;20198;-85
2024/02/29 07:56:15;;;;;;;20.57;14.67;;;;;;;8.85;71.73;96981.81;5054430;28;20202;-84
2024/02/29 07:58:41;;;;;;;21.10;13.80;;;;;;;8.95;71.50;96965.13;5054765;28;20202;-84
2024/02/29 08:01:08;;;;;;;28.73;16.23;;;;;;;8.82;71.58;96955.81;5054514;28;20239;-85
2024/02/29 08:03:35;;;;;;;26.00;16.40;;;;;;;8.98;72.98;96981.31;5054712;28;20205;-85
2024/02/29 08:06:03;;;;;;;20.13;16.80;;;;;;;9.11;72.42;96949.97;5054553;28;20281;-85
2024/02/29 08:08:30;;;;;;;30.97;18.47;;;;;;;9.27;71.56;96997.47;5054350;28;20209;-85
2024/02/29 08:10:57;;;;;;;36.07;22.83;;;;;;;9.34;71.88;97007.06;5054246;28;20213;-86
2024/02/29 08:13:24;;;;;;;27.97;18.67;;;;;;;9.25;72.26;96970.41;5054464;28;20259;-85
2024/02/29 08:15:50;;;;;;;24.47;18.80;;;;;;;9.59;70.66;97004.34;5053926;28;20226;-85
2024/02/29 08:18:18;;;;;;;24.10;17.43;;;;;;;9.93;69.01;96983.25;5054762;28;20718;-85
2024/02/29 08:20:44;;;;;;;26.80;21.33;;;;;;;10.16;68.20;97013.75;5054047;28;20247;-84
2024/02/29 08:23:14;;;;;;;23.77;18.90;;;;;;;10.20;68.17;97014.00;5053919;28;20232;-85
2024/02/29 08:25:41;;;;;;;18.83;14.80;;;;;;;10.26;68.70;97021.72;5054123;28;20691;-85
2024/02/29 08:28:08;;;;;;;27.70;16.33;;;;;;;10.46;67.05;97020.81;5053981;28;20252;-85
2024/02/29 08:30:34;;;;;;;18.63;14.23;;;;;;;10.80;65.58;97014.75;5054192;28;20214;-84
2024/02/29 08:33:01;;;;;;;20.60;14.87;;;;;;;10.51;67.91;96996.84;5053656;28;20211;-84
2024/02/29 08:35:29;;;;;;;21.80;15.07;;;;;;;10.93;65.05;97011.50;5054099;28;20198;-84
2024/02/29 08:37:55;;;;;;;18.80;16.07;;;;;;;11.05;63.89;96954.41;5054203;28;20252;-84
2024/02/29 08:40:24;;;;;;;19.77;13.80;;;;;;;11.22;63.22;97013.38;5053726;28;20787;-84
2024/02/29 08:42:51;;;;;;;18.90;14.47;;;;;;;11.41;62.44;97011.63;5053774;28;20221;-84
2024/02/29 08:45:18;;;;;;;25.40;16.23;;;;;;;11.74;60.22;97019.84;5053589;28;20198;-84
2024/02/29 08:47:46;;;;;;;20.50;13.80;;;;;;;11.62;61.03;96990.13;5053872;28;20209;-84
2024/02/29 08:50:13;;;;;;;20.47;13.00;;;;;;;11.72;57.57;96980.13;5053784;28;20252;-84
2024/02/29 08:52:41;;;;;;;30.93;15.60;;;;;;;11.68;58.02;97002.31;5053094;28;20208;-84
2024/02/29 08:55:09;;;;;;;20.37;13.03;;;;;;;12.11;56.85;97010.41;5053576;28;20203;-85
2024/02/29 08:57:37;;;;;;;21.23;14.93;;;;;;;12.16;57.00;97015.69;5053841;28;20205;-84
2024/02/29 09:00:05;;;;;;;18.30;12.27;;;;;;;12.48;55.61;97005.13;5053611;28;20194;-84
2024/02/29 09:02:32;;;;;;;19.67;11.93;;;;;;;12.30;55.09;96971.19;5053343;28;20237;-84
2024/02/29 09:04:58;;;;;;;15.60;12.00;;;;;;;12.57;54.92;97012.50;5053642;28;20194;-85
2024/02/29 09:07:26;;;;;;;16.10;12.90;;;;;;;12.35;55.81;97005.03;5053065;28;20208;-83
2024/02/29 09:09:53;;;;;;;18.83;12.40;;;;;;;11.61;56.97;96983.97;5053120;28;20213;-83
2024/02/29 09:12:20;;;;;;;15.43;11.90;;;;;;;11.85;56.99;97004.53;5053480;28;20221;-84
2024/02/29 09:14:48;;;;;;;21.03;13.07;;;;;;;12.25;56.50;97005.97;5053214;28;20200;-83
2024/02/29 09:17:15;;;;;;;19.67;12.50;;;;;;;11.92;55.78;97011.13;5053335;28;20259;-84
2024/02/29 09:19:42;;;;;;;20.23;13.37;;;;;;;12.12;56.31;96993.31;5052788;28;20222;-84
2024/02/29 09:22:09;;;;;;;20.63;12.70;;;;;;;12.60;53.40;97004.69;5053373;28;20629;-84
2024/02/29 09:24:36;;;;;;;17.90;11.67;;;;;;;11.98;54.51;97015.34;5053074;28;20198;-84
2024/02/29 09:27:03;;;;;;;22.27;13.40;;;;;;;12.23;54.81;97002.78;5052975;28;20198;-84
2024/02/29 09:29:30;;;;;;;21.27;12.73;;;;;;;12.44;54.11;97009.44;5052901;28;20202;-85
2024/02/29 09:31:58;;;;;;;21.30;12.30;;;;;;;12.30;54.03;96994.44;5053284;28;20198;-83
2024/02/29 09:34:28;;;;;;;18.20;12.83;;;;;;;12.28;54.37;97002.72;5053158;28;20202;-84
2024/02/29 09:36:55;;;;;;;21.53;12.60;;;;;;;12.58;54.41;97000.72;5053224;28;20194;-84
2024/02/29 09:39:21;;;;;;;18.57;12.83;;;;;;;12.42;53.52;97008.13;5052761;28;20690;-83
2024/02/29 09:41:48;;;;;;;25.50;13.10;;;;;;;12.64;53.34;96987.00;5052636;28;20549;-83
2024/02/29 09:44:16;;;;;;;18.80;13.67;;;;;;;12.13;53.07;96946.88;5052962;28;20675;-83
2024/02/29 09:46:46;;;;;;;23.10;14.10;;;;;;;12.52;53.27;96981.31;5052627;28;20259;-84
2024/02/29 09:49:15;;;;;;;18.00;14.27;;;;;;;12.81;53.00;96997.19;5052659;28;20281;-84
2024/02/29 09:51:41;;;;;;;23.27;15.97;;;;;;;12.92;52.89;96974.56;5052811;28;20255;-84
2024/02/29 09:54:16;;;;;;;17.37;13.57;;;;;;;13.05;52.23;96983.75;5052677;28;20263;-84
2024/02/29 09:56:43;;;;;;;21.00;14.83;;;;;;;13.24;52.86;96985.59;5052769;28;20232;-84
2024/02/29 09:59:14;;;;;;;23.47;15.17;;;;;;;13.48;51.61;96988.94;5052475;28;20194;-84
2024/02/29 10:01:42;;;;;;;22.57;14.60;;;;;;;13.55;51.15;96989.34;5052620;28;20222;-84
2024/02/29 10:04:09;;;;;;;23.67;14.63;;;;;;;13.58;51.66;96993.28;5051144;28;20202;-84
2024/02/29 10:06:37;;;;;;;19.83;14.77;;;;;;;13.66;50.85;96988.03;5052539;28;20236;-83
2024/02/29 10:09:04;;;;;;;20.57;14.23;;;;;;;13.88;50.15;96991.94;5051869;28;20198;-84
2024/02/29 10:11:31;;;;;;;20.80;14.40;;;;;;;13.85;50.31;96990.63;5052689;28;20538;-84
2024/02/29 10:14:01;;;;;;;20.20;15.27;;;;;;;13.58;49.91;96988.72;5051986;28;20206;-85
2024/02/29 10:16:28;;;;;;;28.03;20.40;;;;;;;13.94;49.91;96988.88;5051864;28;20280;-83
2024/02/29 10:18:55;;;;;;;20.97;15.17;;;;;;;13.89;49.57;96996.97;5051867;28;20189;-83
2024/02/29 10:21:22;;;;;;;20.97;12.80;;;;;;;13.90;49.32;96979.03;5052136;28;20209;-83
2024/02/29 10:23:50;;;;;;;25.43;14.43;;;;;;;13.79;49.72;96964.31;5051946;28;20213;-83
2024/02/29 10:26:16;;;;;;;25.17;16.33;;;;;;;14.02;49.37;96968.66;5051717;28;20209;-83
2024/02/29 10:28:43;;;;;;;21.37;13.67;;;;;;;13.89;49.23;96977.47;5051432;28;20199;-84
2024/02/29 10:31:10;;;;;;;20.37;15.63;;;;;;;13.77;49.86;96971.81;5051870;28;20615;-84
2024/02/29 10:33:37;;;;;;;18.93;15.13;;;;;;;13.80;49.72;96971.22;5051586;28;20201;-84
2024/02/29 10:36:11;;;;;;;21.90;14.70;;;;;;;13.59;50.39;96966.28;5051546;28;20244;-83
2024/02/29 10:38:38;;;;;;;19.73;13.27;;;;;;;13.49;50.67;96968.31;5051746;28;20668;-83
2024/02/29 10:41:10;;;;;;;20.20;14.30;;;;;;;13.58;50.58;96971.91;5051682;28;20283;-84
2024/02/29 10:43:38;;;;;;;22.83;14.70;;;;;;;13.62;50.23;96949.59;5038831;28;20244;-84
2024/02/29 10:46:06;;;;;;;20.47;15.77;;;;;;;14.18;49.37;96958.44;5051590;28;20263;-86
2024/02/29 10:48:43;;;;;;;27.50;17.33;;;;;;;14.35;48.14;96936.38;5051544;28;20225;-84
2024/02/29 10:51:16;;;;;;;23.57;15.20;;;;;;;14.66;47.85;96942.66;5051512;28;20739;-83
2024/02/29 10:53:49;;;;;;;20.13;14.97;;;;;;;15.04;47.06;96947.66;5051501;28;20196;-82
2024/02/29 10:56:22;;;;;;;21.60;15.73;;;;;;;15.09;46.37;96941.38;5051457;28;20273;-82
2024/02/29 10:58:58;;;;;;;21.30;14.67;;;;;;;15.07;46.03;96943.59;5051181;28;20245;-84
2024/02/29 11:01:26;;;;;;;23.03;14.63;;;;;;;15.43;45.22;96924.69;5051553;28;20228;-83
2024/02/29 11:03:53;;;;;;;26.50;16.57;;;;;;;16.29;42.78;96936.81;5050723;28;20642;-84
2024/02/29 11:06:21;;;;;;;21.80;12.57;;;;;;;16.12;42.26;96924.16;5051664;28;20207;-83
2024/02/29 11:08:48;;;;;;;40.63;25.50;;;;;;;16.89;41.63;96917.25;5050909;28;20199;-84
2024/02/29 11:11:16;;;;;;;22.97;16.83;;;;;;;16.98;41.25;96917.25;5051011;28;20225;-83
2024/02/29 11:13:44;;;;;;;19.00;13.23;;;;;;;16.66;41.00;96916.63;5051574;28;20266;-83
2024/02/29 11:16:11;;;;;;;15.33;12.53;;;;;;;16.77;40.93;96920.59;5050411;28;20200;-83
2024/02/29 11:18:38;;;;;;;16.40;11.70;;;;;;;16.23;42.04;96895.91;5050977;28;20292;-83
2024/02/29 11:21:06;;;;;;;15.53;12.00;;;;;;;16.20;43.37;96909.94;5050564;28;20208;-83
2024/02/29 11:23:36;;;;;;;23.03;13.13;;;;;;;16.16;42.79;96902.84;5050740;28;20273;-83
2024/02/29 11:26:06;;;;;;;19.07;13.20;;;;;;;16.81;42.35;96901.94;5051161;28;20220;-82
2024/02/29 11:28:36;;;;;;;14.27;12.13;;;;;;;16.72;42.86;96895.72;5050654;28;20204;-83